Buoy 13608

sailwx.info

Track history (hours):
 
Tides and Currents Weather Stations Pressure Air Temp Water Temp Dewpoint Dewpoint Depression Visibility Wind Speed Wind Dir Waves Ship Positions

Drifting buoy 13608

Last reported at 2017-Nov-21 03:57 UTC. Time now 2017-Nov-21 04:45 UTC.
Position N 25°42' W 016°20'.

Water temperature 22.8 ° C

Date/timePositionNaut miles runAvg speedWind from/ knotsBaromVisibWave heightAir tempDewpointWater temp
2017-Nov-21 03:57N 25°42' W 016°20'226.9 22.8
2017-Nov-21 03:52N 25°43' W 016°18'1 0.1 22.8
2017-Nov-20 23:16N 25°43' W 016°18'0 0.0 22.9
2017-Nov-20 22:36N 25°43' W 016°18'218.5 22.9
2017-Nov-20 22:29N 25°43' W 016°16'0 0.0 22.9
2017-Nov-20 21:41N 25°43' W 016°16'0 0.0 22.9
2017-Nov-20 21:38N 25°43' W 016°16'1 4.1 22.9
2017-Nov-20 21:30N 25°43' W 016°16'0 0.0 22.9
2017-Nov-20 20:54N 25°43' W 016°16'1 7.2 22.9
2017-Nov-20 20:49N 25°44' W 016°16'0 0.0 22.9
2017-Nov-20 20:30N 25°44' W 016°16'1 2.6 22.9
2017-Nov-20 20:11N 25°43' W 016°16'0 0.0 22.9
2017-Nov-20 18:56N 25°43' W 016°16'0 0.0 22.9
2017-Nov-20 18:51N 25°43' W 016°16'118.5 22.9
2017-Nov-20 18:47N 25°44' W 016°14'0 0.0 22.9
2017-Nov-20 17:11N 25°44' W 016°14'1 0.5 22.9
2017-Nov-20 15:29N 25°44' W 016°15'0 0.0 22.9
2017-Nov-20 11:58N 25°44' W 016°15'0 0.0 22.8
2017-Nov-20 11:16N 25°44' W 016°15'2121.0 22.9
2017-Nov-20 11:15N 25°43' W 016°13'0 0.0 22.8
2017-Nov-20 10:29N 25°43' W 016°13'1 8.8 22.8
2017-Nov-20 10:20N 25°44' W 016°13'0 0.0 22.8
2017-Nov-20 09:35N 25°44' W 016°13'0 0.0 22.8
2017-Nov-20 08:42N 25°44' W 016°13'0 0.0 22.7
2017-Nov-20 08:15N 25°44' W 016°13'0 0.0 22.7
2017-Nov-20 07:08N 25°44' W 016°13'1 6.0 22.7
2017-Nov-20 07:02N 25°44' W 016°13'1 1.6 22.7
2017-Nov-20 06:31N 25°44' W 016°12'1 1.6 22.7
2017-Nov-20 05:46N 25°44' W 016°13'225.9 22.7
2017-Nov-20 05:42N 25°44' W 016°11'0 0.0 22.8
2017-Nov-20 04:51N 25°44' W 016°11'0 0.0 22.8
2017-Nov-20 04:11N 25°44' W 016°11'1 6.7 22.7
2017-Nov-20 04:00N 25°44' W 016°10'0 0.0 22.7
2017-Nov-19 23:41N 25°44' W 016°10'1 1.7 22.8
2017-Nov-19 22:57N 25°44' W 016°11'1 7.2 22.8
2017-Nov-19 22:48N 25°44' W 016°13'0 0.0 22.8
2017-Nov-19 22:03N 25°44' W 016°13'0 0.0 22.8
2017-Nov-19 21:59N 25°44' W 016°13'1 1.2 22.8
2017-Nov-19 21:04N 25°44' W 016°11'1 3.0 22.8
2017-Nov-19 20:48N 25°45' W 016°11'0 0.0 22.8
2017-Nov-19 20:15N 25°45' W 016°11'0 0.0 22.8
2017-Nov-19 19:26N 25°45' W 016°11'0 0.0 22.8
2017-Nov-19 19:15N 25°45' W 016°11'0 0.0 22.8
2017-Nov-19 17:45N 25°45' W 016°11'0 0.0 22.9
2017-Nov-19 17:21N 25°45' W 016°11'1 0.5 22.9
2017-Nov-19 15:41N 25°44' W 016°11'1 0.2 22.9
2017-Nov-19 12:25N 25°44' W 016°12'112.1 22.9
2017-Nov-19 12:21N 25°44' W 016°11'0 0.0 22.9
2017-Nov-19 11:43N 25°44' W 016°11'1 0.8 22.9
2017-Nov-19 10:41N 25°44' W 016°12'260.5 22.9
2017-Nov-19 10:39N 25°45' W 016°10'0 0.0 22.9
2017-Nov-19 09:00N 25°45' W 016°10'0 0.0 22.9
2017-Nov-19 08:41N 25°45' W 016°10'0 0.0 22.9
2017-Nov-19 07:54N 25°45' W 016°10'0 0.0 22.9
2017-Nov-19 07:16N 25°45' W 016°10'0 0.0 22.9
2017-Nov-19 07:14N 25°45' W 016°10'0 0.0 22.9
2017-Nov-19 07:09N 25°45' W 016°10'0 0.0 22.9
2017-Nov-19 06:16N 25°45' W 016°10'0 0.0 22.9
2017-Nov-19 05:58N 25°45' W 016°10'112.4 22.9
2017-Nov-19 05:52N 25°44' W 016°09'0 0.0 22.9
2017-Nov-19 05:25N 25°44' W 016°09'0 0.0 22.9
2017-Nov-19 04:22N 25°44' W 016°09'0 0.0 22.9
2017-Nov-19 04:16N 25°44' W 016°09'397.4 22.9
2017-Nov-19 04:14N 25°43' W 016°06'0 0.0 22.9
2017-Nov-19 00:00N 25°43' W 016°06'0 0.0 23.0
2017-Nov-18 23:56N 25°43' W 016°06'0 0.0 23.0
2017-Nov-18 23:15N 25°43' W 016°06'0 0.0 23.0
2017-Nov-18 22:16N 25°43' W 016°06'0 0.0 23.0
2017-Nov-18 21:36N 25°43' W 016°06'0 0.0 23.0
2017-Nov-18 20:37N 25°43' W 016°06'0 0.0 23.0
2017-Nov-18 20:31N 25°43' W 016°06'1 1.0 23.0
2017-Nov-18 19:57N 25°43' W 016°07'1 1.9 23.0
2017-Nov-18 19:40N 25°43' W 016°06'1 1.4 23.0
2017-Nov-18 18:48N 25°42' W 016°05'1 1.6 23.1
2017-Nov-18 18:17N 25°43' W 016°05'1 2.1 23.1
2017-Nov-18 18:00N 25°42' W 016°05'0 0.0 23.1
2017-Nov-18 17:31N 25°42' W 016°05'2 1.4 23.1
2017-Nov-18 15:53N 25°41' W 016°03'0 0.0 23.2
2017-Nov-18 12:41N 25°41' W 016°03'0 0.0 23.1
2017-Nov-18 11:06N 25°41' W 016°03'1 7.2 23.1
2017-Nov-18 11:01N 25°41' W 016°03'0 0.0 23.1
2017-Nov-18 10:15N 25°41' W 016°03'116.2 23.0
2017-Nov-18 10:13N 25°41' W 016°02'0 0.0 23.0
2017-Nov-18 09:26N 25°41' W 016°02'1 2.9 23.0
2017-Nov-18 09:15N 25°41' W 016°03'1 5.4 23.0
2017-Nov-18 09:06N 25°40' W 016°02'0 0.0 23.0
2017-Nov-18 08:24N 25°40' W 016°02'0 0.0 23.0
2017-Nov-18 07:37N 25°40' W 016°02'1 4.4 23.0
2017-Nov-18 07:26N 25°40' W 016°02'1 0.7 23.0
2017-Nov-18 06:12N 25°39' W 016°01'0 0.0 23.1
2017-Nov-18 06:05N 25°39' W 016°01'1 8.1 23.1
2017-Nov-18 05:59N 25°40' W 016°02'1 0.4 23.1
2017-Nov-18 04:28N 25°40' W 016°01'388.8 23.1
2017-Nov-18 04:26N 25°38' W 015°58'0 0.0 23.1
2017-Nov-17 22:43N 25°38' W 015°58'0 0.0 23.1
2017-Nov-17 22:38N 25°38' W 015°58'0 0.0 23.1
2017-Nov-17 21:56N 25°38' W 015°58'1 8.1 23.2
2017-Nov-17 21:50N 25°38' W 015°58'0 0.0 23.2
2017-Nov-17 21:00N 25°38' W 015°58'1 8.1 23.2
2017-Nov-17 20:56N 25°38' W 015°58'0 0.0 23.2
2017-Nov-17 20:45N 25°38' W 015°58'1 3.0 23.2
2017-Nov-17 20:29N 25°37' W 015°58'0 0.0 23.2
2017-Nov-17 20:01N 25°37' W 015°58'1 0.6 23.2
2017-Nov-17 19:03N 25°37' W 015°57'0 0.0 23.2
2017-Nov-17 18:47N 25°37' W 015°57'1 1.5 23.2
2017-Nov-17 18:25N 25°37' W 015°56'0 0.0 23.2
2017-Nov-17 17:43N 25°37' W 015°56'1 0.7 23.2
2017-Nov-17 16:05N 25°37' W 015°55'0 0.0 23.2
2017-Nov-17 16:03N 25°37' W 015°55'3 0.9 23.2
2017-Nov-17 12:22N 25°35' W 015°52'0 0.0 23.2
2017-Nov-17 12:16N 25°35' W 015°52'0 0.0 23.2
2017-Nov-17 11:27N 25°35' W 015°52'0 0.0 23.2
2017-Nov-17 11:22N 25°35' W 015°52'0 0.0 23.2
2017-Nov-17 11:16N 25°35' W 015°52'0 0.0 23.2
2017-Nov-17 10:42N 25°35' W 015°52'1 8.1 23.2
2017-Nov-17 10:36N 25°35' W 015°52'1 0.7 23.2
2017-Nov-17 09:47N 25°35' W 015°52'0 0.0 23.2
2017-Nov-17 09:24N 25°35' W 015°52'1 6.1 23.2
2017-Nov-17 09:16N 25°35' W 015°51'0 0.0 23.2
2017-Nov-17 08:09N 25°35' W 015°51'1 1.4 23.2
2017-Nov-17 07:44N 25°35' W 015°51'216.2 23.2
2017-Nov-17 07:38N 25°35' W 015°49'0 0.0 23.2
2017-Nov-17 07:06N 25°35' W 015°49'0 0.0 23.2
2017-Nov-17 06:31N 25°35' W 015°49'110.3 23.2
2017-Nov-17 06:24N 25°34' W 015°49'0 0.0 23.2
2017-Nov-17 04:46N 25°34' W 015°49'322.0 23.2
2017-Nov-17 04:37N 25°34' W 015°46'0 0.0 23.2
2017-Nov-16 23:01N 25°34' W 015°46'116.2 23.2
2017-Nov-16 22:59N 25°34' W 015°45'0 0.0 23.2
2017-Nov-16 21:24N 25°34' W 015°45'1 6.9 23.2
2017-Nov-16 21:17N 25°33' W 015°44'1 1.6 23.2
2017-Nov-16 20:55N 25°34' W 015°44'1 1.3 23.2
2017-Nov-16 20:30N 25°34' W 015°44'0 0.0 23.2
2017-Nov-16 19:17N 25°34' W 015°44'0 0.0 23.2
2017-Nov-16 19:15N 25°34' W 015°44'2 4.5 23.2
2017-Nov-16 18:52N 25°33' W 015°42'0 0.0 23.2
2017-Nov-16 17:55N 25°33' W 015°42'0 0.0 23.2
2017-Nov-16 17:50N 25°33' W 015°42'0 0.0 23.2
2017-Nov-16 17:37N 25°33' W 015°42'0 0.0 23.2
2017-Nov-16 16:16N 25°33' W 015°42'317.7 23.3
2017-Nov-16 16:05N 25°33' W 015°38'0 0.0 23.3
2017-Nov-16 14:30N 25°33' W 015°38'0 0.0 23.3
2017-Nov-16 11:47N 25°33' W 015°38'212.2 23.2
2017-Nov-16 11:39N 25°33' W 015°37'0 0.0 23.2
2017-Nov-16 11:03N 25°33' W 015°37'114.9 23.2
2017-Nov-16 10:58N 25°34' W 015°38'0 0.0 23.2
2017-Nov-16 10:07N 25°34' W 015°38'118.6 23.2
2017-Nov-16 10:03N 25°33' W 015°37'0 0.0 23.2
2017-Nov-16 09:30N 25°33' W 015°37'0 0.0 23.2
2017-Nov-16 09:29N 25°33' W 015°37'0 0.0 23.2
2017-Nov-16 09:20N 25°33' W 015°37'0 0.0 23.2
2017-Nov-16 09:14N 25°33' W 015°37'0 0.0 23.2
2017-Nov-16 08:36N 25°33' W 015°37'0 0.0 23.2
2017-Nov-16 07:56N 25°33' W 015°37'1 6.9 23.2
2017-Nov-16 07:49N 25°34' W 015°36'0 0.0 23.2
2017-Nov-16 07:40N 25°34' W 015°36'0 0.0 23.2
2017-Nov-16 07:01N 25°34' W 015°36'0 0.0 23.2
2017-Nov-16 06:34N 25°34' W 015°36'0 0.0 23.2
2017-Nov-16 05:16N 25°34' W 015°36'0 0.0 23.2
2017-Nov-16 04:58N 25°34' W 015°36'321.7 23.2
2017-Nov-16 04:49N 25°34' W 015°32'0 0.0 23.2
2017-Nov-16 03:13N 25°34' W 015°32'1 0.2 23.2
2017-Nov-15 23:20N 25°34' W 015°32'0 0.0 23.2
2017-Nov-15 22:29N 25°34' W 015°32'0 0.0 23.2
2017-Nov-15 21:44N 25°34' W 015°32'1 3.6 23.2
2017-Nov-15 21:35N 25°34' W 015°31'1 2.7 23.2
2017-Nov-15 21:07N 25°34' W 015°30'0 0.0 23.2
2017-Nov-15 20:49N 25°34' W 015°30'0 0.0 23.2
2017-Nov-15 19:53N 25°34' W 015°30'1 1.9 23.3
2017-Nov-15 19:27N 25°34' W 015°29'0 0.0 23.3
2017-Nov-15 19:17N 25°34' W 015°29'0 0.0 23.3
2017-Nov-15 18:11N 25°34' W 015°29'335.5 23.3
2017-Nov-15 18:06N 25°35' W 015°26'0 0.0 23.3
2017-Nov-15 18:00N 25°35' W 015°26'0 0.0 23.3
2017-Nov-15 17:28N 25°35' W 015°26'0 0.0 23.4
2017-Nov-15 16:28N 25°35' W 015°26'0 0.0 23.4
2017-Nov-15 16:17N 25°35' W 015°26'0 0.0 23.4
2017-Nov-15 14:42N 25°35' W 015°26'0 0.0 23.4
2017-Nov-15 12:04N 25°35' W 015°26'0 0.0 23.3
2017-Nov-15 12:01N 25°35' W 015°26'1 0.8 23.3
2017-Nov-15 11:17N 25°36' W 015°26'0 0.0 23.2
2017-Nov-15 10:26N 25°36' W 015°26'0 0.0 23.2
2017-Nov-15 10:22N 25°36' W 015°26'0 0.0 23.2
2017-Nov-15 09:44N 25°36' W 015°26'1 0.5 23.2
2017-Nov-15 08:06N 25°37' W 015°26'1 9.7 23.2
2017-Nov-15 08:01N 25°36' W 015°25'1 1.6 23.2
2017-Nov-15 07:30N 25°37' W 015°26'1 6.9 23.2
2017-Nov-15 07:23N 25°36' W 015°25'0 0.0 23.2
2017-Nov-15 06:46N 25°36' W 015°25'1 2.5 23.2
2017-Nov-15 06:15N 25°37' W 015°25'1 3.4 23.2
2017-Nov-15 05:52N 25°36' W 015°25'1 1.1 23.2
2017-Nov-15 05:06N 25°37' W 015°25'3 1.5 23.2
2017-Nov-15 03:21N 25°39' W 015°23'1 0.3 23.2
2017-Nov-14 23:39N 25°39' W 015°22'0 0.0 23.2
2017-Nov-14 22:59N 25°39' W 015°22'0 0.0 23.2
2017-Nov-14 22:56N 25°39' W 015°22'0 0.0 23.2
2017-Nov-14 22:01N 25°39' W 015°22'0 0.0 23.3
2017-Nov-14 21:58N 25°39' W 015°22'0 0.0 23.3
2017-Nov-14 21:16N 25°39' W 015°22'0 0.0 23.3
2017-Nov-14 21:14N 25°39' W 015°22'1 9.0 23.3
2017-Nov-14 21:10N 25°40' W 015°22'0 0.0 23.3
2017-Nov-14 20:21N 25°40' W 015°22'2112.8 23.3
2017-Nov-14 20:20N 25°41' W 015°23'0 0.0 23.3
2017-Nov-14 19:40N 25°41' W 015°23'2 2.0 23.3
2017-Nov-14 18:38N 25°40' W 015°22'1 2.7 23.3
2017-Nov-14 18:14N 25°40' W 015°20'0 0.0 23.3
2017-Nov-14 18:00N 25°40' W 015°20'0 0.0 23.3
2017-Nov-14 16:38N 25°40' W 015°20'1 5.4 23.3
2017-Nov-14 16:29N 25°40' W 015°20'1 0.8 23.3
2017-Nov-14 14:54N 25°41' W 015°19'0 0.0 23.3
2017-Nov-14 12:25N 25°41' W 015°19'110.8 23.3
2017-Nov-14 12:22N 25°41' W 015°19'1 2.0 23.3
2017-Nov-14 11:42N 25°43' W 015°19'0 0.0 23.3
2017-Nov-14 10:49N 25°43' W 015°19'0 0.0 23.3
2017-Nov-14 10:44N 25°43' W 015°19'1 0.8 23.3
2017-Nov-14 09:58N 25°42' W 015°19'0 0.0 23.3
2017-Nov-14 09:53N 25°42' W 015°19'0 0.0 23.3
2017-Nov-14 09:06N 25°42' W 015°19'2 2.3 23.3
2017-Nov-14 08:17N 25°44' W 015°19'2 7.5 23.3
2017-Nov-14 08:02N 25°42' W 015°19'2 1.7 23.3
2017-Nov-14 06:55N 25°44' W 015°19'0 0.0 230 / 81018.5 5.0 3.023.3
2017-Nov-14 06:38N 25°44' W 015°19'0 0.0 23.3
2017-Nov-14 06:24N 25°44' W 015°19'0 0.0 23.3
2017-Nov-14 05:17N 25°44' W 015°19'224.2 23.3
2017-Nov-14 05:11N 25°46' W 015°17'0 0.0 23.3
2017-Nov-14 03:31N 25°46' W 015°17'0 0.0 23.3
2017-Nov-14 00:02N 25°46' W 015°17'0 0.0 23.3
2017-Nov-13 22:26N 25°46' W 015°17'0 0.0 23.3
2017-Nov-13 22:22N 25°46' W 015°17'0 0.0 23.3
2017-Nov-13 22:21N 25°46' W 015°17'0 0.0 23.3
2017-Nov-13 21:39N 25°46' W 015°17'1 5.4 23.3
2017-Nov-13 21:33N 25°46' W 015°16'0 0.0 23.3
2017-Nov-13 21:30N 25°46' W 015°16'0 0.0 23.3
2017-Nov-13 20:52N 25°46' W 015°16'1 5.9 23.3
2017-Nov-13 20:41N 25°46' W 015°17'0 0.0 23.3
2017-Nov-13 20:04N 25°46' W 015°17'0 0.0 23.3
2017-Nov-13 19:46N 25°46' W 015°17'1 1.2 23.4
2017-Nov-13 19:15N 25°46' W 015°17'1 1.0 23.4
2017-Nov-13 18:26N 25°47' W 015°18'0 0.0 23.4
2017-Nov-13 18:24N 25°47' W 015°18'0 0.0 23.4
2017-Nov-13 17:30N 25°47' W 015°18'0 0.0 23.4
2017-Nov-13 16:50N 25°47' W 015°18'1 4.4 23.4
2017-Nov-13 16:39N 25°47' W 015°17'0 0.0 23.4
2017-Nov-13 15:08N 25°47' W 015°17'0 0.0 23.4
2017-Nov-13 15:06N 25°47' W 015°17'0 0.0 23.4
2017-Nov-13 12:45N 25°47' W 015°17'0 0.0 23.4
2017-Nov-13 12:03N 25°47' W 015°17'1 0.8 23.4
2017-Nov-13 11:05N 25°47' W 015°17'0 0.0 23.3
2017-Nov-13 11:01N 25°47' W 015°17'0 0.0 23.3
2017-Nov-13 10:27N 25°47' W 015°17'0 0.0 23.3
2017-Nov-13 10:19N 25°47' W 015°17'0 0.0 23.3
2017-Nov-13 10:10N 25°47' W 015°17'1 1.6 23.3
2017-Nov-13 09:29N 25°47' W 015°16'0 0.0 23.3
2017-Nov-13 09:23N 25°47' W 015°16'0 0.0 23.3
2017-Nov-13 08:30N 25°47' W 015°16'297.3 23.3
2017-Nov-13 08:29N 25°47' W 015°17'0 0.0 23.3
2017-Nov-13 08:23N 25°47' W 015°17'0 0.0 23.3
2017-Nov-13 07:05N 25°47' W 015°17'0 0.0 23.3
2017-Nov-13 06:54N 25°47' W 015°17'0 0.0 23.3
2017-Nov-13 06:47N 25°47' W 015°17'0 0.0 23.3
2017-Nov-13 05:31N 25°47' W 015°17'218.0 23.3
2017-Nov-13 05:23N 25°49' W 015°17'0 0.0 23.3
2017-Nov-13 05:12N 25°49' W 015°17'0 0.0 23.3
2017-Nov-13 03:49N 25°49' W 015°17'2 0.3 23.3
2017-Nov-12 22:47N 25°50' W 015°19'0 0.0 23.4
2017-Nov-12 22:44N 25°50' W 015°19'0 0.0 23.4
2017-Nov-12 22:00N 25°50' W 015°19'214.8 23.4
2017-Nov-12 21:53N 25°49' W 015°17'0 0.0 23.4
2017-Nov-12 21:42N 25°49' W 015°17'0 0.0 23.4
2017-Nov-12 21:20N 25°49' W 015°17'0 0.0 23.4
2017-Nov-12 21:06N 25°49' W 015°17'112.4 23.4
2017-Nov-12 21:00N 25°50' W 015°19'0 0.0 23.4
2017-Nov-12 20:29N 25°50' W 015°19'0 0.0 23.5
2017-Nov-12 20:02N 25°50' W 015°19'1 3.6 23.5
2017-Nov-12 19:44N 25°50' W 015°17'1 0.9 23.5
2017-Nov-12 18:51N 25°50' W 015°18'0 0.0 23.5
2017-Nov-12 18:46N 25°50' W 015°18'0 0.0 23.6
2017-Nov-12 18:17N 25°50' W 015°18'1 3.3 23.6
2017-Nov-12 18:06N 25°51' W 015°18'0 0.0 23.6
2017-Nov-12 17:02N 25°51' W 015°18'2 1.4 23.6
2017-Nov-12 15:15N 25°52' W 015°20'1 0.2 23.6
2017-Nov-12 11:24N 25°52' W 015°21'0 0.0 23.4
2017-Nov-12 10:48N 25°52' W 015°21'1 2.3 23.4
2017-Nov-12 10:17N 25°53' W 015°21'136.0 23.4
2017-Nov-12 10:15N 25°52' W 015°21'0 0.0 23.4
2017-Nov-12 09:50N 25°52' W 015°21'1 8.1 23.4
2017-Nov-12 09:44N 25°51' W 015°20'0 0.0 23.4
2017-Nov-12 08:35N 25°51' W 015°20'0 0.0 23.4
2017-Nov-12 07:26N 25°51' W 015°20'1 4.0 23.4
2017-Nov-12 07:17N 25°52' W 015°20'0 0.0 23.4
2017-Nov-12 06:55N 25°52' W 015°20'0 0.0 220 / 101000.8 4.1 2.523.4
2017-Nov-12 05:45N 25°52' W 015°20'1 8.1 23.4
2017-Nov-12 05:41N 25°52' W 015°20'1 0.8 23.4
2017-Nov-12 04:01N 25°53' W 015°20'0 0.0 23.4
2017-Nov-12 03:56N 25°53' W 015°20'3 0.5 23.4
2017-Nov-11 22:23N 25°55' W 015°23'0 0.0 23.4
2017-Nov-11 22:12N 25°55' W 015°23'0 0.0 23.4
2017-Nov-11 21:49N 25°55' W 015°23'0 0.0 23.4
2017-Nov-11 21:27N 25°55' W 015°23'0 0.0 23.4
2017-Nov-11 21:23N 25°55' W 015°23'1 6.9 23.4
2017-Nov-11 21:16N 25°54' W 015°23'0 0.0 23.4
2017-Nov-11 20:16N 25°54' W 015°23'118.0 23.4
2017-Nov-11 20:14N 25°55' W 015°23'0 0.0 23.4
2017-Nov-11 19:16N 25°55' W 015°23'0 0.0 23.4
2017-Nov-11 18:36N 25°55' W 015°23'1 6.5 23.5
2017-Nov-11 18:31N 25°55' W 015°23'0 0.0 23.5
2017-Nov-11 17:12N 25°55' W 015°23'3 1.6 23.5
2017-Nov-11 15:29N 25°56' W 015°25'0 0.0 23.5
2017-Nov-11 11:49N 25°56' W 015°25'0 0.0 23.4
2017-Nov-11 11:44N 25°56' W 015°25'0 0.0 23.4
2017-Nov-11 11:02N 25°56' W 015°25'0 0.0 23.4
2017-Nov-11 10:29N 25°56' W 015°25'1 1.6 23.4
2017-Nov-11 10:09N 25°56' W 015°25'0 0.0 23.4
2017-Nov-11 10:05N 25°56' W 015°25'0 0.0 23.4
2017-Nov-11 09:18N 25°56' W 015°25'0 0.0 23.4
2017-Nov-11 08:53N 25°56' W 015°25'0 0.0 23.4
2017-Nov-11 08:46N 25°56' W 015°25'1 0.7 23.4
2017-Nov-11 07:58N 25°56' W 015°24'116.1 23.4
2017-Nov-11 07:55N 25°57' W 015°25'0 0.0 23.4
2017-Nov-11 07:06N 25°57' W 015°25'0 0.0 23.4
2017-Nov-11 06:13N 25°57' W 015°25'1 2.7 23.4
2017-Nov-11 05:55N 25°56' W 015°24'0 0.0 23.4
2017-Nov-11 05:51N 25°56' W 015°24'0 0.0 23.4
2017-Nov-11 05:48N 25°56' W 015°24'118.5 23.4
2017-Nov-11 05:44N 25°57' W 015°25'1 0.5 23.4
2017-Nov-11 04:08N 25°58' W 015°26'   23.5
Track history (hours):
 
Tides and Currents Weather Stations Pressure Air Temp Water Temp Dewpoint Dewpoint Depression Visibility Wind Speed Wind Dir Waves Ship Positions

Drifting buoy 13608

Last reported at 2017-Nov-21 03:57 UTC. Time now 2017-Nov-21 04:45 UTC.
Position N 25°42' W 016°20'.

Water temperature 22.8 ° C

Date/timePositionNaut miles runAvg speedWind from/ knotsBaromVisibWave heightAir tempDewpointWater temp
2017-Nov-21 03:57N 25°42' W 016°20'226.9 22.8
2017-Nov-21 03:52N 25°43' W 016°18'1 0.1 22.8
2017-Nov-20 23:16N 25°43' W 016°18'0 0.0 22.9
2017-Nov-20 22:36N 25°43' W 016°18'218.5 22.9
2017-Nov-20 22:29N 25°43' W 016°16'0 0.0 22.9
2017-Nov-20 21:41N 25°43' W 016°16'0 0.0 22.9
2017-Nov-20 21:38N 25°43' W 016°16'1 4.1 22.9
2017-Nov-20 21:30N 25°43' W 016°16'0 0.0 22.9
2017-Nov-20 20:54N 25°43' W 016°16'1 7.2 22.9
2017-Nov-20 20:49N 25°44' W 016°16'0 0.0 22.9
2017-Nov-20 20:30N 25°44' W 016°16'1 2.6 22.9
2017-Nov-20 20:11N 25°43' W 016°16'0 0.0 22.9
2017-Nov-20 18:56N 25°43' W 016°16'0 0.0 22.9
2017-Nov-20 18:51N 25°43' W 016°16'118.5 22.9
2017-Nov-20 18:47N 25°44' W 016°14'0 0.0 22.9
2017-Nov-20 17:11N 25°44' W 016°14'1 0.5 22.9
2017-Nov-20 15:29N 25°44' W 016°15'0 0.0 22.9
2017-Nov-20 11:58N 25°44' W 016°15'0 0.0 22.8
2017-Nov-20 11:16N 25°44' W 016°15'2121.0 22.9
2017-Nov-20 11:15N 25°43' W 016°13'0 0.0 22.8
2017-Nov-20 10:29N 25°43' W 016°13'1 8.8 22.8
2017-Nov-20 10:20N 25°44' W 016°13'0 0.0 22.8
2017-Nov-20 09:35N 25°44' W 016°13'0 0.0 22.8
2017-Nov-20 08:42N 25°44' W 016°13'0 0.0 22.7
2017-Nov-20 08:15N 25°44' W 016°13'0 0.0 22.7
2017-Nov-20 07:08N 25°44' W 016°13'1 6.0 22.7
2017-Nov-20 07:02N 25°44' W 016°13'1 1.6 22.7
2017-Nov-20 06:31N 25°44' W 016°12'1 1.6 22.7
2017-Nov-20 05:46N 25°44' W 016°13'225.9 22.7
2017-Nov-20 05:42N 25°44' W 016°11'0 0.0 22.8
2017-Nov-20 04:51N 25°44' W 016°11'0 0.0 22.8
2017-Nov-20 04:11N 25°44' W 016°11'1 6.7 22.7
2017-Nov-20 04:00N 25°44' W 016°10'0 0.0 22.7
2017-Nov-19 23:41N 25°44' W 016°10'1 1.7 22.8
2017-Nov-19 22:57N 25°44' W 016°11'1 7.2 22.8
2017-Nov-19 22:48N 25°44' W 016°13'0 0.0 22.8
2017-Nov-19 22:03N 25°44' W 016°13'0 0.0 22.8
2017-Nov-19 21:59N 25°44' W 016°13'1 1.2 22.8
2017-Nov-19 21:04N 25°44' W 016°11'1 3.0 22.8
2017-Nov-19 20:48N 25°45' W 016°11'0 0.0 22.8
2017-Nov-19 20:15N 25°45' W 016°11'0 0.0 22.8
2017-Nov-19 19:26N 25°45' W 016°11'0 0.0 22.8
2017-Nov-19 19:15N 25°45' W 016°11'0 0.0 22.8
2017-Nov-19 17:45N 25°45' W 016°11'0 0.0 22.9
2017-Nov-19 17:21N 25°45' W 016°11'1 0.5 22.9
2017-Nov-19 15:41N 25°44' W 016°11'1 0.2 22.9
2017-Nov-19 12:25N 25°44' W 016°12'112.1 22.9
2017-Nov-19 12:21N 25°44' W 016°11'0 0.0 22.9
2017-Nov-19 11:43N 25°44' W 016°11'1 0.8 22.9
2017-Nov-19 10:41N 25°44' W 016°12'260.5 22.9
2017-Nov-19 10:39N 25°45' W 016°10'0 0.0 22.9
2017-Nov-19 09:00N 25°45' W 016°10'0 0.0 22.9
2017-Nov-19 08:41N 25°45' W 016°10'0 0.0 22.9
2017-Nov-19 07:54N 25°45' W 016°10'0 0.0 22.9
2017-Nov-19 07:16N 25°45' W 016°10'0 0.0 22.9
2017-Nov-19 07:14N 25°45' W 016°10'0 0.0 22.9
2017-Nov-19 07:09N 25°45' W 016°10'0 0.0 22.9
2017-Nov-19 06:16N 25°45' W 016°10'0 0.0 22.9
2017-Nov-19 05:58N 25°45' W 016°10'112.4 22.9
2017-Nov-19 05:52N 25°44' W 016°09'0 0.0 22.9
2017-Nov-19 05:25N 25°44' W 016°09'0 0.0 22.9
2017-Nov-19 04:22N 25°44' W 016°09'0 0.0 22.9
2017-Nov-19 04:16N 25°44' W 016°09'397.4 22.9
2017-Nov-19 04:14N 25°43' W 016°06'0 0.0 22.9
2017-Nov-19 00:00N 25°43' W 016°06'0 0.0 23.0
2017-Nov-18 23:56N 25°43' W 016°06'0 0.0 23.0
2017-Nov-18 23:15N 25°43' W 016°06'0 0.0 23.0
2017-Nov-18 22:16N 25°43' W 016°06'0 0.0 23.0
2017-Nov-18 21:36N 25°43' W 016°06'0 0.0 23.0
2017-Nov-18 20:37N 25°43' W 016°06'0 0.0 23.0
2017-Nov-18 20:31N 25°43' W 016°06'1 1.0 23.0
2017-Nov-18 19:57N 25°43' W 016°07'1 1.9 23.0
2017-Nov-18 19:40N 25°43' W 016°06'1 1.4 23.0
2017-Nov-18 18:48N 25°42' W 016°05'1 1.6 23.1
2017-Nov-18 18:17N 25°43' W 016°05'1 2.1 23.1
2017-Nov-18 18:00N 25°42' W 016°05'0 0.0 23.1
2017-Nov-18 17:31N 25°42' W 016°05'2 1.4 23.1
2017-Nov-18 15:53N 25°41' W 016°03'0 0.0 23.2
2017-Nov-18 12:41N 25°41' W 016°03'0 0.0 23.1
2017-Nov-18 11:06N 25°41' W 016°03'1 7.2 23.1
2017-Nov-18 11:01N 25°41' W 016°03'0 0.0 23.1
2017-Nov-18 10:15N 25°41' W 016°03'116.2 23.0
2017-Nov-18 10:13N 25°41' W 016°02'0 0.0 23.0
2017-Nov-18 09:26N 25°41' W 016°02'1 2.9 23.0
2017-Nov-18 09:15N 25°41' W 016°03'1 5.4 23.0
2017-Nov-18 09:06N 25°40' W 016°02'0 0.0 23.0
2017-Nov-18 08:24N 25°40' W 016°02'0 0.0 23.0
2017-Nov-18 07:37N 25°40' W 016°02'1 4.4 23.0
2017-Nov-18 07:26N 25°40' W 016°02'1 0.7 23.0
2017-Nov-18 06:12N 25°39' W 016°01'0 0.0 23.1
2017-Nov-18 06:05N 25°39' W 016°01'1 8.1 23.1
2017-Nov-18 05:59N 25°40' W 016°02'1 0.4 23.1
2017-Nov-18 04:28N 25°40' W 016°01'388.8 23.1
2017-Nov-18 04:26N 25°38' W 015°58'0 0.0 23.1
2017-Nov-17 22:43N 25°38' W 015°58'0 0.0 23.1
2017-Nov-17 22:38N 25°38' W 015°58'0 0.0 23.1
2017-Nov-17 21:56N 25°38' W 015°58'1 8.1 23.2
2017-Nov-17 21:50N 25°38' W 015°58'0 0.0 23.2
2017-Nov-17 21:00N 25°38' W 015°58'1 8.1 23.2
2017-Nov-17 20:56N 25°38' W 015°58'0 0.0 23.2
2017-Nov-17 20:45N 25°38' W 015°58'1 3.0 23.2
2017-Nov-17 20:29N 25°37' W 015°58'0 0.0 23.2
2017-Nov-17 20:01N 25°37' W 015°58'1 0.6 23.2
2017-Nov-17 19:03N 25°37' W 015°57'0 0.0 23.2
2017-Nov-17 18:47N 25°37' W 015°57'1 1.5 23.2
2017-Nov-17 18:25N 25°37' W 015°56'0 0.0 23.2
2017-Nov-17 17:43N 25°37' W 015°56'1 0.7 23.2
2017-Nov-17 16:05N 25°37' W 015°55'0 0.0 23.2
2017-Nov-17 16:03N 25°37' W 015°55'3 0.9 23.2
2017-Nov-17 12:22N 25°35' W 015°52'0 0.0 23.2
2017-Nov-17 12:16N 25°35' W 015°52'0 0.0 23.2
2017-Nov-17 11:27N 25°35' W 015°52'0 0.0 23.2
2017-Nov-17 11:22N 25°35' W 015°52'0 0.0 23.2
2017-Nov-17 11:16N 25°35' W 015°52'0 0.0 23.2
2017-Nov-17 10:42N 25°35' W 015°52'1 8.1 23.2
2017-Nov-17 10:36N 25°35' W 015°52'1 0.7 23.2
2017-Nov-17 09:47N 25°35' W 015°52'0 0.0 23.2
2017-Nov-17 09:24N 25°35' W 015°52'1 6.1 23.2
2017-Nov-17 09:16N 25°35' W 015°51'0 0.0 23.2
2017-Nov-17 08:09N 25°35' W 015°51'1 1.4 23.2
2017-Nov-17 07:44N 25°35' W 015°51'216.2 23.2
2017-Nov-17 07:38N 25°35' W 015°49'0 0.0 23.2
2017-Nov-17 07:06N 25°35' W 015°49'0 0.0 23.2
2017-Nov-17 06:31N 25°35' W 015°49'110.3 23.2
2017-Nov-17 06:24N 25°34' W 015°49'0 0.0 23.2
2017-Nov-17 04:46N 25°34' W 015°49'322.0 23.2
2017-Nov-17 04:37N 25°34' W 015°46'0 0.0 23.2
2017-Nov-16 23:01N 25°34' W 015°46'116.2 23.2
2017-Nov-16 22:59N 25°34' W 015°45'0 0.0 23.2
2017-Nov-16 21:24N 25°34' W 015°45'1 6.9 23.2
2017-Nov-16 21:17N 25°33' W 015°44'1 1.6 23.2
2017-Nov-16 20:55N 25°34' W 015°44'1 1.3 23.2
2017-Nov-16 20:30N 25°34' W 015°44'0 0.0 23.2
2017-Nov-16 19:17N 25°34' W 015°44'0 0.0 23.2
2017-Nov-16 19:15N 25°34' W 015°44'2 4.5 23.2
2017-Nov-16 18:52N 25°33' W 015°42'0 0.0 23.2
2017-Nov-16 17:55N 25°33' W 015°42'0 0.0 23.2
2017-Nov-16 17:50N 25°33' W 015°42'0 0.0 23.2
2017-Nov-16 17:37N 25°33' W 015°42'0 0.0 23.2
2017-Nov-16 16:16N 25°33' W 015°42'317.7 23.3
2017-Nov-16 16:05N 25°33' W 015°38'0 0.0 23.3
2017-Nov-16 14:30N 25°33' W 015°38'0 0.0 23.3
2017-Nov-16 11:47N 25°33' W 015°38'212.2 23.2
2017-Nov-16 11:39N 25°33' W 015°37'0 0.0 23.2
2017-Nov-16 11:03N 25°33' W 015°37'114.9 23.2
2017-Nov-16 10:58N 25°34' W 015°38'0 0.0 23.2
2017-Nov-16 10:07N 25°34' W 015°38'118.6 23.2
2017-Nov-16 10:03N 25°33' W 015°37'0 0.0 23.2
2017-Nov-16 09:30N 25°33' W 015°37'0 0.0 23.2
2017-Nov-16 09:29N 25°33' W 015°37'0 0.0 23.2
2017-Nov-16 09:20N 25°33' W 015°37'0 0.0 23.2
2017-Nov-16 09:14N 25°33' W 015°37'0 0.0 23.2
2017-Nov-16 08:36N 25°33' W 015°37'0 0.0 23.2
2017-Nov-16 07:56N 25°33' W 015°37'1 6.9 23.2
2017-Nov-16 07:49N 25°34' W 015°36'0 0.0 23.2
2017-Nov-16 07:40N 25°34' W 015°36'0 0.0 23.2
2017-Nov-16 07:01N 25°34' W 015°36'0 0.0 23.2
2017-Nov-16 06:34N 25°34' W 015°36'0 0.0 23.2
2017-Nov-16 05:16N 25°34' W 015°36'0 0.0 23.2
2017-Nov-16 04:58N 25°34' W 015°36'321.7 23.2
2017-Nov-16 04:49N 25°34' W 015°32'0 0.0 23.2
2017-Nov-16 03:13N 25°34' W 015°32'1 0.2 23.2
2017-Nov-15 23:20N 25°34' W 015°32'0 0.0 23.2
2017-Nov-15 22:29N 25°34' W 015°32'0 0.0 23.2
2017-Nov-15 21:44N 25°34' W 015°32'1 3.6 23.2
2017-Nov-15 21:35N 25°34' W 015°31'1 2.7 23.2
2017-Nov-15 21:07N 25°34' W 015°30'0 0.0 23.2
2017-Nov-15 20:49N 25°34' W 015°30'0 0.0 23.2
2017-Nov-15 19:53N 25°34' W 015°30'1 1.9 23.3
2017-Nov-15 19:27N 25°34' W 015°29'0 0.0 23.3
2017-Nov-15 19:17N 25°34' W 015°29'0 0.0 23.3
2017-Nov-15 18:11N 25°34' W 015°29'335.5 23.3
2017-Nov-15 18:06N 25°35' W 015°26'0 0.0 23.3
2017-Nov-15 18:00N 25°35' W 015°26'0 0.0 23.3
2017-Nov-15 17:28N 25°35' W 015°26'0 0.0 23.4
2017-Nov-15 16:28N 25°35' W 015°26'0 0.0 23.4
2017-Nov-15 16:17N 25°35' W 015°26'0 0.0 23.4
2017-Nov-15 14:42N 25°35' W 015°26'0 0.0 23.4
2017-Nov-15 12:04N 25°35' W 015°26'0 0.0 23.3
2017-Nov-15 12:01N 25°35' W 015°26'1 0.8 23.3
2017-Nov-15 11:17N 25°36' W 015°26'0 0.0 23.2
2017-Nov-15 10:26N 25°36' W 015°26'0 0.0 23.2
2017-Nov-15 10:22N 25°36' W 015°26'0 0.0 23.2
2017-Nov-15 09:44N 25°36' W 015°26'1 0.5 23.2
2017-Nov-15 08:06N 25°37' W 015°26'1 9.7 23.2
2017-Nov-15 08:01N 25°36' W 015°25'1 1.6 23.2
2017-Nov-15 07:30N 25°37' W 015°26'1 6.9 23.2
2017-Nov-15 07:23N 25°36' W 015°25'0 0.0 23.2
2017-Nov-15 06:46N 25°36' W 015°25'1 2.5 23.2
2017-Nov-15 06:15N 25°37' W 015°25'1 3.4 23.2
2017-Nov-15 05:52N 25°36' W 015°25'1 1.1 23.2
2017-Nov-15 05:06N 25°37' W 015°25'3 1.5 23.2
2017-Nov-15 03:21N 25°39' W 015°23'1 0.3 23.2
2017-Nov-14 23:39N 25°39' W 015°22'0 0.0 23.2
2017-Nov-14 22:59N 25°39' W 015°22'0 0.0 23.2
2017-Nov-14 22:56N 25°39' W 015°22'0 0.0 23.2
2017-Nov-14 22:01N 25°39' W 015°22'0 0.0 23.3
2017-Nov-14 21:58N 25°39' W 015°22'0 0.0 23.3
2017-Nov-14 21:16N 25°39' W 015°22'0 0.0 23.3
2017-Nov-14 21:14N 25°39' W 015°22'1 9.0 23.3
2017-Nov-14 21:10N 25°40' W 015°22'0 0.0 23.3
2017-Nov-14 20:21N 25°40' W 015°22'2112.8 23.3
2017-Nov-14 20:20N 25°41' W 015°23'0 0.0 23.3
2017-Nov-14 19:40N 25°41' W 015°23'2 2.0 23.3
2017-Nov-14 18:38N 25°40' W 015°22'1 2.7 23.3
2017-Nov-14 18:14N 25°40' W 015°20'0 0.0 23.3
2017-Nov-14 18:00N 25°40' W 015°20'0 0.0 23.3
2017-Nov-14 16:38N 25°40' W 015°20'1 5.4 23.3
2017-Nov-14 16:29N 25°40' W 015°20'1 0.8 23.3
2017-Nov-14 14:54N 25°41' W 015°19'0 0.0 23.3
2017-Nov-14 12:25N 25°41' W 015°19'110.8 23.3
2017-Nov-14 12:22N 25°41' W 015°19'1 2.0 23.3
2017-Nov-14 11:42N 25°43' W 015°19'0 0.0 23.3
2017-Nov-14 10:49N 25°43' W 015°19'0 0.0 23.3
2017-Nov-14 10:44N 25°43' W 015°19'1 0.8 23.3
2017-Nov-14 09:58N 25°42' W 015°19'0 0.0 23.3
2017-Nov-14 09:53N 25°42' W 015°19'0 0.0 23.3
2017-Nov-14 09:06N 25°42' W 015°19'2 2.3 23.3
2017-Nov-14 08:17N 25°44' W 015°19'2 7.5 23.3
2017-Nov-14 08:02N 25°42' W 015°19'2 1.7 23.3
2017-Nov-14 06:55N 25°44' W 015°19'0 0.0 230 / 81018.5 5.0 3.023.3
2017-Nov-14 06:38N 25°44' W 015°19'0 0.0 23.3
2017-Nov-14 06:24N 25°44' W 015°19'0 0.0 23.3
2017-Nov-14 05:17N 25°44' W 015°19'224.2 23.3
2017-Nov-14 05:11N 25°46' W 015°17'0 0.0 23.3
2017-Nov-14 03:31N 25°46' W 015°17'0 0.0 23.3
2017-Nov-14 00:02N 25°46' W 015°17'0 0.0 23.3
2017-Nov-13 22:26N 25°46' W 015°17'0 0.0 23.3
2017-Nov-13 22:22N 25°46' W 015°17'0 0.0 23.3
2017-Nov-13 22:21N 25°46' W 015°17'0 0.0 23.3
2017-Nov-13 21:39N 25°46' W 015°17'1 5.4 23.3
2017-Nov-13 21:33N 25°46' W 015°16'0 0.0 23.3
2017-Nov-13 21:30N 25°46' W 015°16'0 0.0 23.3
2017-Nov-13 20:52N 25°46' W 015°16'1 5.9 23.3
2017-Nov-13 20:41N 25°46' W 015°17'0 0.0 23.3
2017-Nov-13 20:04N 25°46' W 015°17'0 0.0 23.3
2017-Nov-13 19:46N 25°46' W 015°17'1 1.2 23.4
2017-Nov-13 19:15N 25°46' W 015°17'1 1.0 23.4
2017-Nov-13 18:26N 25°47' W 015°18'0 0.0 23.4
2017-Nov-13 18:24N 25°47' W 015°18'0 0.0 23.4
2017-Nov-13 17:30N 25°47' W 015°18'0 0.0 23.4
2017-Nov-13 16:50N 25°47' W 015°18'1 4.4 23.4
2017-Nov-13 16:39N 25°47' W 015°17'0 0.0 23.4
2017-Nov-13 15:08N 25°47' W 015°17'0 0.0 23.4
2017-Nov-13 15:06N 25°47' W 015°17'0 0.0 23.4
2017-Nov-13 12:45N 25°47' W 015°17'0 0.0 23.4
2017-Nov-13 12:03N 25°47' W 015°17'1 0.8 23.4
2017-Nov-13 11:05N 25°47' W 015°17'0 0.0 23.3
2017-Nov-13 11:01N 25°47' W 015°17'0 0.0 23.3
2017-Nov-13 10:27N 25°47' W 015°17'0 0.0 23.3
2017-Nov-13 10:19N 25°47' W 015°17'0 0.0 23.3
2017-Nov-13 10:10N 25°47' W 015°17'1 1.6 23.3
2017-Nov-13 09:29N 25°47' W 015°16'0 0.0 23.3
2017-Nov-13 09:23N 25°47' W 015°16'0 0.0 23.3
2017-Nov-13 08:30N 25°47' W 015°16'297.3 23.3
2017-Nov-13 08:29N 25°47' W 015°17'0 0.0 23.3
2017-Nov-13 08:23N 25°47' W 015°17'0 0.0 23.3
2017-Nov-13 07:05N 25°47' W 015°17'0 0.0 23.3
2017-Nov-13 06:54N 25°47' W 015°17'0 0.0 23.3
2017-Nov-13 06:47N 25°47' W 015°17'0 0.0 23.3
2017-Nov-13 05:31N 25°47' W 015°17'218.0 23.3
2017-Nov-13 05:23N 25°49' W 015°17'0 0.0 23.3
2017-Nov-13 05:12N 25°49' W 015°17'0 0.0 23.3
2017-Nov-13 03:49N 25°49' W 015°17'2 0.3 23.3
2017-Nov-12 22:47N 25°50' W 015°19'0 0.0 23.4
2017-Nov-12 22:44N 25°50' W 015°19'0 0.0 23.4
2017-Nov-12 22:00N 25°50' W 015°19'214.8 23.4
2017-Nov-12 21:53N 25°49' W 015°17'0 0.0 23.4
2017-Nov-12 21:42N 25°49' W 015°17'0 0.0 23.4
2017-Nov-12 21:20N 25°49' W 015°17'0 0.0 23.4
2017-Nov-12 21:06N 25°49' W 015°17'112.4 23.4
2017-Nov-12 21:00N 25°50' W 015°19'0 0.0 23.4
2017-Nov-12 20:29N 25°50' W 015°19'0 0.0 23.5
2017-Nov-12 20:02N 25°50' W 015°19'1 3.6 23.5
2017-Nov-12 19:44N 25°50' W 015°17'1 0.9 23.5
2017-Nov-12 18:51N 25°50' W 015°18'0 0.0 23.5
2017-Nov-12 18:46N 25°50' W 015°18'0 0.0 23.6
2017-Nov-12 18:17N 25°50' W 015°18'1 3.3 23.6
2017-Nov-12 18:06N 25°51' W 015°18'0 0.0 23.6
2017-Nov-12 17:02N 25°51' W 015°18'2 1.4 23.6
2017-Nov-12 15:15N 25°52' W 015°20'1 0.2 23.6
2017-Nov-12 11:24N 25°52' W 015°21'0 0.0 23.4
2017-Nov-12 10:48N 25°52' W 015°21'1 2.3 23.4
2017-Nov-12 10:17N 25°53' W 015°21'136.0 23.4
2017-Nov-12 10:15N 25°52' W 015°21'0 0.0 23.4
2017-Nov-12 09:50N 25°52' W 015°21'1 8.1 23.4
2017-Nov-12 09:44N 25°51' W 015°20'0 0.0 23.4
2017-Nov-12 08:35N 25°51' W 015°20'0 0.0 23.4
2017-Nov-12 07:26N 25°51' W 015°20'1 4.0 23.4
2017-Nov-12 07:17N 25°52' W 015°20'0 0.0 23.4
2017-Nov-12 06:55N 25°52' W 015°20'0 0.0 220 / 101000.8 4.1 2.523.4
2017-Nov-12 05:45N 25°52' W 015°20'1 8.1 23.4
2017-Nov-12 05:41N 25°52' W 015°20'1 0.8 23.4
2017-Nov-12 04:01N 25°53' W 015°20'0 0.0 23.4
2017-Nov-12 03:56N 25°53' W 015°20'3 0.5 23.4
2017-Nov-11 22:23N 25°55' W 015°23'0 0.0 23.4
2017-Nov-11 22:12N 25°55' W 015°23'0 0.0 23.4
2017-Nov-11 21:49N 25°55' W 015°23'0 0.0 23.4
2017-Nov-11 21:27N 25°55' W 015°23'0 0.0 23.4
2017-Nov-11 21:23N 25°55' W 015°23'1 6.9 23.4
2017-Nov-11 21:16N 25°54' W 015°23'0 0.0 23.4
2017-Nov-11 20:16N 25°54' W 015°23'118.0 23.4
2017-Nov-11 20:14N 25°55' W 015°23'0 0.0 23.4
2017-Nov-11 19:16N 25°55' W 015°23'0 0.0 23.4
2017-Nov-11 18:36N 25°55' W 015°23'1 6.5 23.5
2017-Nov-11 18:31N 25°55' W 015°23'0 0.0 23.5
2017-Nov-11 17:12N 25°55' W 015°23'3 1.6 23.5
2017-Nov-11 15:29N 25°56' W 015°25'0 0.0 23.5
2017-Nov-11 11:49N 25°56' W 015°25'0 0.0 23.4
2017-Nov-11 11:44N 25°56' W 015°25'0 0.0 23.4
2017-Nov-11 11:02N 25°56' W 015°25'0 0.0 23.4
2017-Nov-11 10:29N 25°56' W 015°25'1 1.6 23.4
2017-Nov-11 10:09N 25°56' W 015°25'0 0.0 23.4
2017-Nov-11 10:05N 25°56' W 015°25'0 0.0 23.4
2017-Nov-11 09:18N 25°56' W 015°25'0 0.0 23.4
2017-Nov-11 08:53N 25°56' W 015°25'0 0.0 23.4
2017-Nov-11 08:46N 25°56' W 015°25'1 0.7 23.4
2017-Nov-11 07:58N 25°56' W 015°24'116.1 23.4
2017-Nov-11 07:55N 25°57' W 015°25'0 0.0 23.4
2017-Nov-11 07:06N 25°57' W 015°25'0 0.0 23.4
2017-Nov-11 06:13N 25°57' W 015°25'1 2.7 23.4
2017-Nov-11 05:55N 25°56' W 015°24'0 0.0 23.4
2017-Nov-11 05:51N 25°56' W 015°24'0 0.0 23.4
2017-Nov-11 05:48N 25°56' W 015°24'118.5 23.4
2017-Nov-11 05:44N 25°57' W 015°25'1 0.5 23.4
2017-Nov-11 04:08N 25°58' W 015°26'   23.5

Dump ship's entire track history